sensor_id;sensor_type;location;lat;lon;timestamp;temperature;humidity
67572;SHT31;54397;47.506;19.158;2024-02-23T00:03:09;12.03;56.97
67572;SHT31;54397;47.506;19.158;2024-02-23T00:06:34;12.17;56.46
67572;SHT31;54397;47.506;19.158;2024-02-23T00:09:58;12.20;56.79
67572;SHT31;54397;47.506;19.158;2024-02-23T00:13:22;12.16;56.44
67572;SHT31;54397;47.506;19.158;2024-02-23T00:16:44;12.16;56.47
67572;SHT31;54397;47.506;19.158;2024-02-23T00:20:08;12.24;56.32
67572;SHT31;54397;47.506;19.158;2024-02-23T00:23:32;12.21;56.20
67572;SHT31;54397;47.506;19.158;2024-02-23T00:26:54;12.16;56.26
67572;SHT31;54397;47.506;19.158;2024-02-23T00:30:15;12.21;56.42
67572;SHT31;54397;47.506;19.158;2024-02-23T00:33:37;12.28;55.99
67572;SHT31;54397;47.506;19.158;2024-02-23T00:37:03;12.35;56.09
67572;SHT31;54397;47.506;19.158;2024-02-23T00:40:25;12.45;55.48
67572;SHT31;54397;47.506;19.158;2024-02-23T00:43:49;12.40;55.89
67572;SHT31;54397;47.506;19.158;2024-02-23T00:47:11;12.35;55.89
67572;SHT31;54397;47.506;19.158;2024-02-23T00:50:35;12.37;56.22
67572;SHT31;54397;47.506;19.158;2024-02-23T00:53:59;12.28;56.57
67572;SHT31;54397;47.506;19.158;2024-02-23T00:57:20;12.32;56.92
67572;SHT31;54397;47.506;19.158;2024-02-23T01:00:51;12.28;57.17
67572;SHT31;54397;47.506;19.158;2024-02-23T01:04:15;12.18;57.59
67572;SHT31;54397;47.506;19.158;2024-02-23T01:07:41;12.16;58.03
67572;SHT31;54397;47.506;19.158;2024-02-23T01:11:03;12.14;58.55
67572;SHT31;54397;47.506;19.158;2024-02-23T01:14:27;12.10;59.25
67572;SHT31;54397;47.506;19.158;2024-02-23T01:17:49;12.04;59.85
67572;SHT31;54397;47.506;19.158;2024-02-23T01:21:11;12.04;60.40
67572;SHT31;54397;47.506;19.158;2024-02-23T01:24:32;12.08;60.89
67572;SHT31;54397;47.506;19.158;2024-02-23T01:27:57;12.13;61.45
67572;SHT31;54397;47.506;19.158;2024-02-23T01:31:18;11.95;62.28
67572;SHT31;54397;47.506;19.158;2024-02-23T01:34:40;11.91;62.92
67572;SHT31;54397;47.506;19.158;2024-02-23T01:38:02;11.89;63.43
67572;SHT31;54397;47.506;19.158;2024-02-23T01:41:24;11.90;63.98
67572;SHT31;54397;47.506;19.158;2024-02-23T01:44:49;11.84;64.70
67572;SHT31;54397;47.506;19.158;2024-02-23T01:48:13;11.90;64.91
67572;SHT31;54397;47.506;19.158;2024-02-23T01:51:35;11.77;65.25
67572;SHT31;54397;47.506;19.158;2024-02-23T01:54:58;11.70;66.17
67572;SHT31;54397;47.506;19.158;2024-02-23T01:58:19;11.54;66.78
67572;SHT31;54397;47.506;19.158;2024-02-23T02:01:45;11.59;66.84
67572;SHT31;54397;47.506;19.158;2024-02-23T02:05:10;11.48;67.33
67572;SHT31;54397;47.506;19.158;2024-02-23T02:08:33;11.54;67.24
67572;SHT31;54397;47.506;19.158;2024-02-23T02:11:58;11.42;68.21
67572;SHT31;54397;47.506;19.158;2024-02-23T02:15:23;11.40;68.18
67572;SHT31;54397;47.506;19.158;2024-02-23T02:18:44;11.34;68.65
67572;SHT31;54397;47.506;19.158;2024-02-23T02:22:07;11.36;68.61
67572;SHT31;54397;47.506;19.158;2024-02-23T02:25:29;11.29;69.27
67572;SHT31;54397;47.506;19.158;2024-02-23T02:28:50;11.29;68.83
67572;SHT31;54397;47.506;19.158;2024-02-23T02:32:13;11.25;69.04
67572;SHT31;54397;47.506;19.158;2024-02-23T02:35:35;11.34;69.21
67572;SHT31;54397;47.506;19.158;2024-02-23T02:38:57;11.28;69.87
67572;SHT31;54397;47.506;19.158;2024-02-23T02:42:21;11.32;70.00
67572;SHT31;54397;47.506;19.158;2024-02-23T02:45:43;11.31;70.47
67572;SHT31;54397;47.506;19.158;2024-02-23T02:49:05;11.31;70.88
67572;SHT31;54397;47.506;19.158;2024-02-23T02:52:29;11.28;70.73
67572;SHT31;54397;47.506;19.158;2024-02-23T02:55:51;11.36;70.34
67572;SHT31;54397;47.506;19.158;2024-02-23T02:59:12;11.38;70.91
67572;SHT31;54397;47.506;19.158;2024-02-23T03:02:35;11.40;70.84
67572;SHT31;54397;47.506;19.158;2024-02-23T03:05:59;11.40;70.97
67572;SHT31;54397;47.506;19.158;2024-02-23T03:09:23;11.24;71.86
67572;SHT31;54397;47.506;19.158;2024-02-23T03:12:44;11.35;71.24
67572;SHT31;54397;47.506;19.158;2024-02-23T03:16:06;11.29;71.83
67572;SHT31;54397;47.506;19.158;2024-02-23T03:19:36;11.28;72.04
67572;SHT31;54397;47.506;19.158;2024-02-23T03:22:58;11.42;71.61
67572;SHT31;54397;47.506;19.158;2024-02-23T03:26:19;11.39;72.18
67572;SHT31;54397;47.506;19.158;2024-02-23T03:29:44;11.36;72.01
67572;SHT31;54397;47.506;19.158;2024-02-23T03:33:06;11.48;72.34
67572;SHT31;54397;47.506;19.158;2024-02-23T03:36:28;11.39;72.28
67572;SHT31;54397;47.506;19.158;2024-02-23T03:39:50;11.27;72.33
67572;SHT31;54397;47.506;19.158;2024-02-23T03:43:14;11.25;72.53
67572;SHT31;54397;47.506;19.158;2024-02-23T03:46:35;11.25;72.65
67572;SHT31;54397;47.506;19.158;2024-02-23T03:49:59;11.19;73.40
67572;SHT31;54397;47.506;19.158;2024-02-23T03:53:21;11.14;73.81
67572;SHT31;54397;47.506;19.158;2024-02-23T03:56:43;11.18;73.68
67572;SHT31;54397;47.506;19.158;2024-02-23T04:00:06;11.19;73.02
67572;SHT31;54397;47.506;19.158;2024-02-23T04:03:31;11.19;73.91
67572;SHT31;54397;47.506;19.158;2024-02-23T04:06:55;11.22;73.36
67572;SHT31;54397;47.506;19.158;2024-02-23T04:10:19;11.21;73.34
67572;SHT31;54397;47.506;19.158;2024-02-23T04:13:44;11.27;73.19
67572;SHT31;54397;47.506;19.158;2024-02-23T04:17:07;11.31;72.89
67572;SHT31;54397;47.506;19.158;2024-02-23T04:20:29;11.28;72.99
67572;SHT31;54397;47.506;19.158;2024-02-23T04:23:51;11.27;72.84
67572;SHT31;54397;47.506;19.158;2024-02-23T04:27:13;11.10;73.64
67572;SHT31;54397;47.506;19.158;2024-02-23T04:30:34;11.06;74.30
67572;SHT31;54397;47.506;19.158;2024-02-23T04:33:58;10.90;74.64
67572;SHT31;54397;47.506;19.158;2024-02-23T04:37:20;10.96;74.99
67572;SHT31;54397;47.506;19.158;2024-02-23T04:40:41;10.85;75.16
67572;SHT31;54397;47.506;19.158;2024-02-23T04:44:03;10.81;75.48
67572;SHT31;54397;47.506;19.158;2024-02-23T04:47:25;10.91;75.44
67572;SHT31;54397;47.506;19.158;2024-02-23T04:50:49;10.93;75.46
67572;SHT31;54397;47.506;19.158;2024-02-23T04:54:11;10.94;75.61
67572;SHT31;54397;47.506;19.158;2024-02-23T04:57:33;11.00;75.65
67572;SHT31;54397;47.506;19.158;2024-02-23T05:00:54;11.00;75.70
67572;SHT31;54397;47.506;19.158;2024-02-23T05:04:16;10.85;75.66
67572;SHT31;54397;47.506;19.158;2024-02-23T05:07:38;10.90;75.31
67572;SHT31;54397;47.506;19.158;2024-02-23T05:11:00;10.91;75.47
67572;SHT31;54397;47.506;19.158;2024-02-23T05:14:25;10.98;74.70
67572;SHT31;54397;47.506;19.158;2024-02-23T05:17:47;11.10;74.65
67572;SHT31;54397;47.506;19.158;2024-02-23T05:21:09;11.11;74.82
67572;SHT31;54397;47.506;19.158;2024-02-23T05:24:31;11.14;74.49
67572;SHT31;54397;47.506;19.158;2024-02-23T05:27:55;11.15;74.38
67572;SHT31;54397;47.506;19.158;2024-02-23T05:31:16;11.06;75.20
67572;SHT31;54397;47.506;19.158;2024-02-23T05:34:41;11.07;75.12
67572;SHT31;54397;47.506;19.158;2024-02-23T05:38:03;11.21;74.55
67572;SHT31;54397;47.506;19.158;2024-02-23T05:41:27;11.15;74.04
67572;SHT31;54397;47.506;19.158;2024-02-23T05:44:49;11.14;74.10
67572;SHT31;54397;47.506;19.158;2024-02-23T05:48:11;11.15;74.21
67572;SHT31;54397;47.506;19.158;2024-02-23T05:51:33;11.18;74.57
67572;SHT31;54397;47.506;19.158;2024-02-23T05:54:56;11.18;75.25
67572;SHT31;54397;47.506;19.158;2024-02-23T05:58:18;11.24;75.73
67572;SHT31;54397;47.506;19.158;2024-02-23T06:01:39;11.25;76.00
67572;SHT31;54397;47.506;19.158;2024-02-23T06:05:05;11.28;76.41
67572;SHT31;54397;47.506;19.158;2024-02-23T06:08:29;11.17;76.91
67572;SHT31;54397;47.506;19.158;2024-02-23T06:11:51;11.07;77.38
67572;SHT31;54397;47.506;19.158;2024-02-23T06:15:18;10.96;78.48
67572;SHT31;54397;47.506;19.158;2024-02-23T06:18:39;10.85;78.93
67572;SHT31;54397;47.506;19.158;2024-02-23T06:22:05;10.77;79.62
67572;SHT31;54397;47.506;19.158;2024-02-23T06:25:33;10.90;79.39
67572;SHT31;54397;47.506;19.158;2024-02-23T06:28:57;10.87;79.50
67572;SHT31;54397;47.506;19.158;2024-02-23T06:32:21;10.88;79.46
67572;SHT31;54397;47.506;19.158;2024-02-23T06:35:47;10.91;79.47
67572;SHT31;54397;47.506;19.158;2024-02-23T06:39:14;10.88;79.39
67572;SHT31;54397;47.506;19.158;2024-02-23T06:42:41;10.80;79.30
67572;SHT31;54397;47.506;19.158;2024-02-23T06:46:06;10.83;79.76
67572;SHT31;54397;47.506;19.158;2024-02-23T06:49:28;10.88;79.35
67572;SHT31;54397;47.506;19.158;2024-02-23T06:52:50;10.88;79.56
67572;SHT31;54397;47.506;19.158;2024-02-23T06:56:12;10.91;79.59
67572;SHT31;54397;47.506;19.158;2024-02-23T06:59:35;10.88;79.64
67572;SHT31;54397;47.506;19.158;2024-02-23T07:02:57;10.88;79.67
67572;SHT31;54397;47.506;19.158;2024-02-23T07:06:20;10.88;79.69
67572;SHT31;54397;47.506;19.158;2024-02-23T07:09:42;10.96;80.16
67572;SHT31;54397;47.506;19.158;2024-02-23T07:13:04;10.93;79.64
67572;SHT31;54397;47.506;19.158;2024-02-23T07:16:27;11.06;79.66
67572;SHT31;54397;47.506;19.158;2024-02-23T07:19:49;11.03;79.83
67572;SHT31;54397;47.506;19.158;2024-02-23T07:23:13;11.08;79.31
67572;SHT31;54397;47.506;19.158;2024-02-23T07:26:34;11.08;79.74
67572;SHT31;54397;47.506;19.158;2024-02-23T07:29:58;11.06;79.56
67572;SHT31;54397;47.506;19.158;2024-02-23T07:33:22;11.10;79.49
67572;SHT31;54397;47.506;19.158;2024-02-23T07:36:44;11.10;79.68
67572;SHT31;54397;47.506;19.158;2024-02-23T07:40:07;11.28;82.65
67572;SHT31;54397;47.506;19.158;2024-02-23T07:43:29;11.55;84.12
67572;SHT31;54397;47.506;19.158;2024-02-23T07:46:54;11.86;84.32
67572;SHT31;54397;47.506;19.158;2024-02-23T07:50:16;12.04;82.41
67572;SHT31;54397;47.506;19.158;2024-02-23T07:53:42;12.25;83.65
67572;SHT31;54397;47.506;19.158;2024-02-23T07:57:06;12.13;77.06
67572;SHT31;54397;47.506;19.158;2024-02-23T08:00:28;11.86;77.05
67572;SHT31;54397;47.506;19.158;2024-02-23T08:03:52;11.76;78.28
67572;SHT31;54397;47.506;19.158;2024-02-23T08:07:14;11.76;78.25
67572;SHT31;54397;47.506;19.158;2024-02-23T08:10:36;11.76;78.25
67572;SHT31;54397;47.506;19.158;2024-02-23T08:13:57;11.75;78.82
67572;SHT31;54397;47.506;19.158;2024-02-23T08:17:23;11.73;78.46
67572;SHT31;54397;47.506;19.158;2024-02-23T08:20:44;11.72;78.17
67572;SHT31;54397;47.506;19.158;2024-02-23T08:24:06;11.63;78.99
67572;SHT31;54397;47.506;19.158;2024-02-23T08:27:29;11.65;78.81
67572;SHT31;54397;47.506;19.158;2024-02-23T08:30:53;11.63;78.99
67572;SHT31;54397;47.506;19.158;2024-02-23T08:34:15;11.62;79.29
67572;SHT31;54397;47.506;19.158;2024-02-23T08:37:39;11.69;78.87
67572;SHT31;54397;47.506;19.158;2024-02-23T08:41:03;11.80;78.80
67572;SHT31;54397;47.506;19.158;2024-02-23T08:44:25;11.75;78.28
67572;SHT31;54397;47.506;19.158;2024-02-23T08:47:47;11.66;78.41
67572;SHT31;54397;47.506;19.158;2024-02-23T08:51:09;11.69;78.23
67572;SHT31;54397;47.506;19.158;2024-02-23T08:54:30;11.58;78.64
67572;SHT31;54397;47.506;19.158;2024-02-23T08:57:52;11.69;78.67
67572;SHT31;54397;47.506;19.158;2024-02-23T09:01:16;11.62;78.51
67572;SHT31;54397;47.506;19.158;2024-02-23T09:04:37;11.55;78.59
67572;SHT31;54397;47.506;19.158;2024-02-23T09:07:59;11.58;78.88
67572;SHT31;54397;47.506;19.158;2024-02-23T09:11:25;11.59;78.74
67572;SHT31;54397;47.506;19.158;2024-02-23T09:14:47;11.67;78.20
67572;SHT31;54397;47.506;19.158;2024-02-23T09:18:09;11.59;78.63
67572;SHT31;54397;47.506;19.158;2024-02-23T09:21:33;11.65;78.04
67572;SHT31;54397;47.506;19.158;2024-02-23T09:24:54;11.72;78.11
67572;SHT31;54397;47.506;19.158;2024-02-23T09:28:20;11.73;78.29
67572;SHT31;54397;47.506;19.158;2024-02-23T09:31:41;11.72;78.15
67572;SHT31;54397;47.506;19.158;2024-02-23T09:35:03;11.66;79.09
67572;SHT31;54397;47.506;19.158;2024-02-23T09:38:28;11.62;79.06
67572;SHT31;54397;47.506;19.158;2024-02-23T09:41:54;11.66;79.22
67572;SHT31;54397;47.506;19.158;2024-02-23T09:45:15;11.75;82.21
67572;SHT31;54397;47.506;19.158;2024-02-23T09:48:43;12.32;86.34
67572;SHT31;54397;47.506;19.158;2024-02-23T09:52:07;12.75;85.09
67572;SHT31;54397;47.506;19.158;2024-02-23T09:55:32;13.07;80.79
67572;SHT31;54397;47.506;19.158;2024-02-23T09:58:56;12.97;75.61
67572;SHT31;54397;47.506;19.158;2024-02-23T10:02:18;12.80;75.31
67572;SHT31;54397;47.506;19.158;2024-02-23T10:05:40;13.03;78.25
67572;SHT31;54397;47.506;19.158;2024-02-23T10:09:06;14.29;73.22
67572;SHT31;54397;47.506;19.158;2024-02-23T10:12:32;15.10;69.70
67572;SHT31;54397;47.506;19.158;2024-02-23T10:15:54;15.03;67.57
67572;SHT31;54397;47.506;19.158;2024-02-23T10:19:35;15.30;68.10
67572;SHT31;54397;47.506;19.158;2024-02-23T10:22:57;15.74;66.12
67572;SHT31;54397;47.506;19.158;2024-02-23T10:26:18;15.33;65.92
67572;SHT31;54397;47.506;19.158;2024-02-23T10:29:44;14.54;66.72
67572;SHT31;54397;47.506;19.158;2024-02-23T10:33:11;13.89;69.75
67572;SHT31;54397;47.506;19.158;2024-02-23T10:36:34;13.36;71.54
67572;SHT31;54397;47.506;19.158;2024-02-23T10:40:00;13.07;73.08
67572;SHT31;54397;47.506;19.158;2024-02-23T10:43:30;12.92;73.23
67572;SHT31;54397;47.506;19.158;2024-02-23T10:46:58;12.82;73.39
67572;SHT31;54397;47.506;19.158;2024-02-23T10:50:22;12.76;73.55
67572;SHT31;54397;47.506;19.158;2024-02-23T10:53:45;12.85;73.88
67572;SHT31;54397;47.506;19.158;2024-02-23T10:57:08;12.68;74.61
67572;SHT31;54397;47.506;19.158;2024-02-23T11:00:30;12.70;74.79
67572;SHT31;54397;47.506;19.158;2024-02-23T11:03:52;12.70;74.98
67572;SHT31;54397;47.506;19.158;2024-02-23T11:07:14;12.73;74.76
67572;SHT31;54397;47.506;19.158;2024-02-23T11:10:49;12.93;78.29
67572;SHT31;54397;47.506;19.158;2024-02-23T11:14:14;13.43;80.54
67572;SHT31;54397;47.506;19.158;2024-02-23T11:17:36;13.62;78.36
67572;SHT31;54397;47.506;19.158;2024-02-23T11:21:02;13.98;76.80
67572;SHT31;54397;47.506;19.158;2024-02-23T11:24:29;13.99;71.98
67572;SHT31;54397;47.506;19.158;2024-02-23T11:27:50;14.30;74.97
67572;SHT31;54397;47.506;19.158;2024-02-23T11:31:14;14.22;68.34
67572;SHT31;54397;47.506;19.158;2024-02-23T11:34:35;14.05;68.43
67572;SHT31;54397;47.506;19.158;2024-02-23T11:37:57;13.76;68.96
67572;SHT31;54397;47.506;19.158;2024-02-23T11:41:24;13.55;69.62
67572;SHT31;54397;47.506;19.158;2024-02-23T11:44:52;13.47;70.51
67572;SHT31;54397;47.506;19.158;2024-02-23T11:48:15;13.31;71.10
67572;SHT31;54397;47.506;19.158;2024-02-23T11:51:39;13.18;72.88
67572;SHT31;54397;47.506;19.158;2024-02-23T11:55:04;13.14;73.63
67572;SHT31;54397;47.506;19.158;2024-02-23T11:58:26;13.16;73.63
67572;SHT31;54397;47.506;19.158;2024-02-23T12:01:48;13.24;73.35
67572;SHT31;54397;47.506;19.158;2024-02-23T12:05:10;13.21;73.41
67572;SHT31;54397;47.506;19.158;2024-02-23T12:08:32;13.17;72.75
67572;SHT31;54397;47.506;19.158;2024-02-23T12:11:59;13.20;72.83
67572;SHT31;54397;47.506;19.158;2024-02-23T12:15:21;13.31;72.22
67572;SHT31;54397;47.506;19.158;2024-02-23T12:18:52;13.26;73.02
67572;SHT31;54397;47.506;19.158;2024-02-23T12:22:17;13.27;73.10
67572;SHT31;54397;47.506;19.158;2024-02-23T12:25:42;13.43;73.11
67572;SHT31;54397;47.506;19.158;2024-02-23T12:29:15;13.40;73.28
67572;SHT31;54397;47.506;19.158;2024-02-23T12:32:37;13.33;73.50
67572;SHT31;54397;47.506;19.158;2024-02-23T12:35:59;13.18;72.97
67572;SHT31;54397;47.506;19.158;2024-02-23T12:39:21;13.14;72.57
67572;SHT31;54397;47.506;19.158;2024-02-23T12:42:51;13.09;72.42
67572;SHT31;54397;47.506;19.158;2024-02-23T12:46:17;13.13;72.42
67572;SHT31;54397;47.506;19.158;2024-02-23T12:49:39;13.11;72.28
67572;SHT31;54397;47.506;19.158;2024-02-23T12:53:08;13.11;72.69
67572;SHT31;54397;47.506;19.158;2024-02-23T12:56:31;13.06;72.85
67572;SHT31;54397;47.506;19.158;2024-02-23T12:59:57;13.09;77.73
67572;SHT31;54397;47.506;19.158;2024-02-23T13:03:19;13.62;81.93
67572;SHT31;54397;47.506;19.158;2024-02-23T13:06:41;14.12;79.55
67572;SHT31;54397;47.506;19.158;2024-02-23T13:10:04;14.50;77.63
67572;SHT31;54397;47.506;19.158;2024-02-23T13:13:28;14.50;70.98
67572;SHT31;54397;47.506;19.158;2024-02-23T13:16:53;14.54;74.50
67572;SHT31;54397;47.506;19.158;2024-02-23T13:20:15;14.54;71.35
67572;SHT31;54397;47.506;19.158;2024-02-23T13:23:37;14.34;69.06
67572;SHT31;54397;47.506;19.158;2024-02-23T13:26:59;14.26;68.93
67572;SHT31;54397;47.506;19.158;2024-02-23T13:30:20;13.98;68.87
67572;SHT31;54397;47.506;19.158;2024-02-23T13:33:44;13.86;70.09
67572;SHT31;54397;47.506;19.158;2024-02-23T13:37:07;13.76;70.30
67572;SHT31;54397;47.506;19.158;2024-02-23T13:40:31;13.76;70.18
67572;SHT31;54397;47.506;19.158;2024-02-23T13:43:56;13.57;69.89
67572;SHT31;54397;47.506;19.158;2024-02-23T13:47:17;13.57;70.00
67572;SHT31;54397;47.506;19.158;2024-02-23T13:50:41;13.48;69.95
67572;SHT31;54397;47.506;19.158;2024-02-23T13:54:05;13.37;70.36
67572;SHT31;54397;47.506;19.158;2024-02-23T13:57:29;13.33;70.19
67572;SHT31;54397;47.506;19.158;2024-02-23T14:00:54;13.11;70.65
67572;SHT31;54397;47.506;19.158;2024-02-23T14:04:18;13.14;71.46
67572;SHT31;54397;47.506;19.158;2024-02-23T14:07:42;13.34;70.99
67572;SHT31;54397;47.506;19.158;2024-02-23T14:11:04;13.20;71.83
67572;SHT31;54397;47.506;19.158;2024-02-23T14:14:29;13.33;71.32
67572;SHT31;54397;47.506;19.158;2024-02-23T14:17:50;13.23;71.86
67572;SHT31;54397;47.506;19.158;2024-02-23T14:21:12;13.20;71.98
67572;SHT31;54397;47.506;19.158;2024-02-23T14:24:35;13.21;72.21
67572;SHT31;54397;47.506;19.158;2024-02-23T14:28:00;13.62;77.93
67572;SHT31;54397;47.506;19.158;2024-02-23T14:31:21;13.93;78.34
67572;SHT31;54397;47.506;19.158;2024-02-23T14:34:48;14.22;75.19
67572;SHT31;54397;47.506;19.158;2024-02-23T14:38:09;14.44;74.34
67572;SHT31;54397;47.506;19.158;2024-02-23T14:41:31;14.60;74.93
67572;SHT31;54397;47.506;19.158;2024-02-23T14:44:56;14.74;73.84
67572;SHT31;54397;47.506;19.158;2024-02-23T14:48:20;14.64;68.38
67572;SHT31;54397;47.506;19.158;2024-02-23T14:51:42;14.40;68.09
67572;SHT31;54397;47.506;19.158;2024-02-23T14:55:10;14.14;68.87
67572;SHT31;54397;47.506;19.158;2024-02-23T14:58:37;13.89;69.10
67572;SHT31;54397;47.506;19.158;2024-02-23T15:02:02;13.59;70.47
67572;SHT31;54397;47.506;19.158;2024-02-23T15:05:24;13.38;71.02
67572;SHT31;54397;47.506;19.158;2024-02-23T15:08:46;13.37;70.86
67572;SHT31;54397;47.506;19.158;2024-02-23T15:12:07;13.26;70.54
67572;SHT31;54397;47.506;19.158;2024-02-23T15:15:29;13.23;70.74
67572;SHT31;54397;47.506;19.158;2024-02-23T15:18:53;13.10;70.72
67572;SHT31;54397;47.506;19.158;2024-02-23T15:22:15;12.80;71.18
67572;SHT31;54397;47.506;19.158;2024-02-23T15:25:41;12.83;71.30
67572;SHT31;54397;47.506;19.158;2024-02-23T15:29:07;12.79;71.20
67572;SHT31;54397;47.506;19.158;2024-02-23T15:32:34;12.99;74.25
67572;SHT31;54397;47.506;19.158;2024-02-23T15:35:56;13.13;72.47
67572;SHT31;54397;47.506;19.158;2024-02-23T15:39:20;13.34;70.58
67572;SHT31;54397;47.506;19.158;2024-02-23T15:42:42;13.69;74.63
67572;SHT31;54397;47.506;19.158;2024-02-23T15:46:09;13.96;69.19
67572;SHT31;54397;47.506;19.158;2024-02-23T15:49:30;14.06;70.34
67572;SHT31;54397;47.506;19.158;2024-02-23T15:53:12;14.14;72.04
67572;SHT31;54397;47.506;19.158;2024-02-23T15:56:34;13.98;66.10
67572;SHT31;54397;47.506;19.158;2024-02-23T16:00:04;13.81;66.41
67572;SHT31;54397;47.506;19.158;2024-02-23T16:03:26;13.55;66.89
67572;SHT31;54397;47.506;19.158;2024-02-23T16:06:48;13.44;67.88
67572;SHT31;54397;47.506;19.158;2024-02-23T16:10:12;13.17;68.47
67572;SHT31;54397;47.506;19.158;2024-02-23T16:13:34;13.03;69.24
67572;SHT31;54397;47.506;19.158;2024-02-23T16:16:56;12.96;69.88
67572;SHT31;54397;47.506;19.158;2024-02-23T16:20:18;13.04;69.76
67572;SHT31;54397;47.506;19.158;2024-02-23T16:23:44;13.09;69.51
67572;SHT31;54397;47.506;19.158;2024-02-23T16:27:08;13.03;69.76
67572;SHT31;54397;47.506;19.158;2024-02-23T16:30:30;13.14;69.34
67572;SHT31;54397;47.506;19.158;2024-02-23T16:33:53;13.09;69.43
67572;SHT31;54397;47.506;19.158;2024-02-23T16:37:15;13.04;69.67
67572;SHT31;54397;47.506;19.158;2024-02-23T16:40:39;13.04;69.64
67572;SHT31;54397;47.506;19.158;2024-02-23T16:44:02;12.96;69.76
67572;SHT31;54397;47.506;19.158;2024-02-23T16:47:25;13.16;76.09
67572;SHT31;54397;47.506;19.158;2024-02-23T16:50:50;13.53;75.89
67572;SHT31;54397;47.506;19.158;2024-02-23T16:54:12;13.74;74.15
67572;SHT31;54397;47.506;19.158;2024-02-23T16:57:34;14.01;69.91
67572;SHT31;54397;47.506;19.158;2024-02-23T17:00:58;14.29;74.00
67572;SHT31;54397;47.506;19.158;2024-02-23T17:04:20;14.12;67.48
67572;SHT31;54397;47.506;19.158;2024-02-23T17:07:44;14.22;70.75
67572;SHT31;54397;47.506;19.158;2024-02-23T17:11:08;14.34;66.35
67572;SHT31;54397;47.506;19.158;2024-02-23T17:14:30;13.98;66.17
67572;SHT31;54397;47.506;19.158;2024-02-23T17:17:54;13.64;67.47
67572;SHT31;54397;47.506;19.158;2024-02-23T17:21:18;13.45;67.92
67572;SHT31;54397;47.506;19.158;2024-02-23T17:24:42;13.40;68.05
67572;SHT31;54397;47.506;19.158;2024-02-23T17:28:06;13.82;75.13
67572;SHT31;54397;47.506;19.158;2024-02-23T17:31:28;15.12;70.68
67572;SHT31;54397;47.506;19.158;2024-02-23T17:34:50;16.01;67.63
67572;SHT31;54397;47.506;19.158;2024-02-23T17:38:12;16.38;64.67
67572;SHT31;54397;47.506;19.158;2024-02-23T17:41:33;16.48;61.17
67572;SHT31;54397;47.506;19.158;2024-02-23T17:44:57;16.43;61.22
67572;SHT31;54397;47.506;19.158;2024-02-23T17:48:21;16.28;61.77
67572;SHT31;54397;47.506;19.158;2024-02-23T17:51:47;15.60;60.67
67572;SHT31;54397;47.506;19.158;2024-02-23T17:55:09;14.60;63.27
67572;SHT31;54397;47.506;19.158;2024-02-23T17:58:33;14.16;64.81
67572;SHT31;54397;47.506;19.158;2024-02-23T18:01:57;13.83;65.79
67572;SHT31;54397;47.506;19.158;2024-02-23T18:05:19;13.54;66.49
67572;SHT31;54397;47.506;19.158;2024-02-23T18:08:41;13.36;67.05
67572;SHT31;54397;47.506;19.158;2024-02-23T18:12:03;13.20;67.65
67572;SHT31;54397;47.506;19.158;2024-02-23T18:15:24;13.07;68.14
67572;SHT31;54397;47.506;19.158;2024-02-23T18:18:46;13.07;67.77
67572;SHT31;54397;47.506;19.158;2024-02-23T18:22:13;12.96;67.90
67572;SHT31;54397;47.506;19.158;2024-02-23T18:25:35;12.76;68.35
67572;SHT31;54397;47.506;19.158;2024-02-23T18:28:56;12.73;68.63
67572;SHT31;54397;47.506;19.158;2024-02-23T18:32:19;12.78;68.53
67572;SHT31;54397;47.506;19.158;2024-02-23T18:35:43;12.83;68.09
67572;SHT31;54397;47.506;19.158;2024-02-23T18:39:07;12.95;67.98
67572;SHT31;54397;47.506;19.158;2024-02-23T18:42:33;12.93;67.81
67572;SHT31;54397;47.506;19.158;2024-02-23T18:45:55;12.89;67.81
67572;SHT31;54397;47.506;19.158;2024-02-23T18:49:18;12.88;67.49
67572;SHT31;54397;47.506;19.158;2024-02-23T18:52:40;12.69;68.09
67572;SHT31;54397;47.506;19.158;2024-02-23T18:56:02;12.76;67.70
67572;SHT31;54397;47.506;19.158;2024-02-23T18:59:27;12.68;67.80
67572;SHT31;54397;47.506;19.158;2024-02-23T19:02:52;12.78;67.80
67572;SHT31;54397;47.506;19.158;2024-02-23T19:06:16;12.69;67.49
67572;SHT31;54397;47.506;19.158;2024-02-23T19:09:41;12.68;67.50
67572;SHT31;54397;47.506;19.158;2024-02-23T19:13:03;12.68;67.74
67572;SHT31;54397;47.506;19.158;2024-02-23T19:16:25;12.75;67.39
67572;SHT31;54397;47.506;19.158;2024-02-23T19:19:46;12.75;67.29
67572;SHT31;54397;47.506;19.158;2024-02-23T19:23:11;12.75;67.30
67572;SHT31;54397;47.506;19.158;2024-02-23T19:26:37;12.75;67.23
67572;SHT31;54397;47.506;19.158;2024-02-23T19:29:59;12.89;67.08
67572;SHT31;54397;47.506;19.158;2024-02-23T19:33:24;12.83;67.12
67572;SHT31;54397;47.506;19.158;2024-02-23T19:36:46;12.72;67.22
67572;SHT31;54397;47.506;19.158;2024-02-23T19:40:13;12.78;66.87
67572;SHT31;54397;47.506;19.158;2024-02-23T19:43:39;12.75;67.35
67572;SHT31;54397;47.506;19.158;2024-02-23T19:47:03;12.82;66.90
67572;SHT31;54397;47.506;19.158;2024-02-23T19:50:28;12.78;67.01
67572;SHT31;54397;47.506;19.158;2024-02-23T19:53:54;12.85;69.96
67572;SHT31;54397;47.506;19.158;2024-02-23T19:57:18;13.27;72.29
67572;SHT31;54397;47.506;19.158;2024-02-23T20:00:39;13.27;68.77
67572;SHT31;54397;47.506;19.158;2024-02-23T20:04:01;13.51;68.15
67572;SHT31;54397;47.506;19.158;2024-02-23T20:07:23;13.92;69.89
67572;SHT31;54397;47.506;19.158;2024-02-23T20:10:45;14.13;69.77
67572;SHT31;54397;47.506;19.158;2024-02-23T20:14:07;14.19;66.77
67572;SHT31;54397;47.506;19.158;2024-02-23T20:17:28;13.90;63.45
67572;SHT31;54397;47.506;19.158;2024-02-23T20:20:50;13.86;63.52
67572;SHT31;54397;47.506;19.158;2024-02-23T20:24:18;13.62;64.06
67572;SHT31;54397;47.506;19.158;2024-02-23T20:27:39;13.54;64.59
67572;SHT31;54397;47.506;19.158;2024-02-23T20:31:04;13.40;64.60
67572;SHT31;54397;47.506;19.158;2024-02-23T20:34:27;13.13;65.56
67572;SHT31;54397;47.506;19.158;2024-02-23T20:37:53;13.03;65.90
67572;SHT31;54397;47.506;19.158;2024-02-23T20:41:24;13.06;67.78
67572;SHT31;54397;47.506;19.158;2024-02-23T20:44:48;13.41;73.22
67572;SHT31;54397;47.506;19.158;2024-02-23T20:48:12;13.50;68.00
67572;SHT31;54397;47.506;19.158;2024-02-23T20:51:36;13.85;66.51
67572;SHT31;54397;47.506;19.158;2024-02-23T20:55:01;13.89;67.47
67572;SHT31;54397;47.506;19.158;2024-02-23T20:58:23;14.06;69.58
67572;SHT31;54397;47.506;19.158;2024-02-23T21:01:47;14.02;63.47
67572;SHT31;54397;47.506;19.158;2024-02-23T21:05:09;13.87;62.65